sensor_id;sensor_type;location;lat;lon;timestamp;pressure;altitude;pressure_sealevel;temperature;humidity
7376;BME280;3728;42.266;24.944;2024-02-26T00:00:51;99207.84;;;12.99;86.65
7376;BME280;3728;42.266;24.944;2024-02-26T00:03:18;99190.28;;;12.91;87.28
7376;BME280;3728;42.266;24.944;2024-02-26T00:05:46;99193.50;;;12.76;87.98
7376;BME280;3728;42.266;24.944;2024-02-26T00:08:13;99189.66;;;12.73;88.69
7376;BME280;3728;42.266;24.944;2024-02-26T00:10:40;99198.31;;;12.74;88.71
7376;BME280;3728;42.266;24.944;2024-02-26T00:13:07;99207.28;;;12.73;89.16
7376;BME280;3728;42.266;24.944;2024-02-26T00:15:34;99203.88;;;12.72;88.85
7376;BME280;3728;42.266;24.944;2024-02-26T00:18:02;99202.09;;;12.64;88.86
7376;BME280;3728;42.266;24.944;2024-02-26T00:20:29;99206.69;;;12.47;89.95
7376;BME280;3728;42.266;24.944;2024-02-26T00:22:56;99201.25;;;12.52;90.23
7376;BME280;3728;42.266;24.944;2024-02-26T00:25:23;99206.84;;;12.50;90.39
7376;BME280;3728;42.266;24.944;2024-02-26T00:27:50;99206.69;;;12.47;90.14
7376;BME280;3728;42.266;24.944;2024-02-26T00:30:17;99208.50;;;12.55;90.43
7376;BME280;3728;42.266;24.944;2024-02-26T00:32:44;99220.84;;;12.54;88.56
7376;BME280;3728;42.266;24.944;2024-02-26T00:35:11;99212.28;;;12.66;87.56
7376;BME280;3728;42.266;24.944;2024-02-26T00:37:38;99204.06;;;12.47;88.34
7376;BME280;3728;42.266;24.944;2024-02-26T00:40:07;99202.22;;;12.18;90.59
7376;BME280;3728;42.266;24.944;2024-02-26T00:42:35;99206.41;;;12.19;92.11
7376;BME280;3728;42.266;24.944;2024-02-26T00:45:02;99204.06;;;12.47;89.63
7376;BME280;3728;42.266;24.944;2024-02-26T00:47:29;99205.03;;;12.42;90.69
7376;BME280;3728;42.266;24.944;2024-02-26T00:49:56;99199.59;;;12.18;91.39
7376;BME280;3728;42.266;24.944;2024-02-26T00:52:24;99198.31;;;12.03;93.08
7376;BME280;3728;42.266;24.944;2024-02-26T00:54:50;99205.97;;;12.08;93.39
7376;BME280;3728;42.266;24.944;2024-02-26T00:57:17;99202.91;;;12.06;93.88
7376;BME280;3728;42.266;24.944;2024-02-26T00:59:44;99194.72;;;12.08;94.23
7376;BME280;3728;42.266;24.944;2024-02-26T01:02:11;99196.50;;;12.24;92.92
7376;BME280;3728;42.266;24.944;2024-02-26T01:04:38;99195.34;;;12.34;92.51
7376;BME280;3728;42.266;24.944;2024-02-26T01:07:05;99194.16;;;12.52;91.00
7376;BME280;3728;42.266;24.944;2024-02-26T01:09:32;99215.03;;;12.69;89.95
7376;BME280;3728;42.266;24.944;2024-02-26T01:11:59;99211.19;;;12.67;89.71
7376;BME280;3728;42.266;24.944;2024-02-26T01:14:27;99214.78;;;12.62;90.27
7376;BME280;3728;42.266;24.944;2024-02-26T01:16:54;99214.28;;;12.48;91.43
7376;BME280;3728;42.266;24.944;2024-02-26T01:19:21;99211.81;;;12.43;92.92
7376;BME280;3728;42.266;24.944;2024-02-26T01:21:48;99193.63;;;12.38;92.99
7376;BME280;3728;42.266;24.944;2024-02-26T01:24:15;99181.31;;;12.30;92.92
7376;BME280;3728;42.266;24.944;2024-02-26T01:26:42;99175.44;;;12.33;92.88
7376;BME280;3728;42.266;24.944;2024-02-26T01:29:09;99157.13;;;12.24;93.73
7376;BME280;3728;42.266;24.944;2024-02-26T01:31:36;99143.72;;;12.17;94.53
7376;BME280;3728;42.266;24.944;2024-02-26T01:34:03;99135.53;;;12.19;95.11
7376;BME280;3728;42.266;24.944;2024-02-26T01:36:31;99119.13;;;12.22;95.93
7376;BME280;3728;42.266;24.944;2024-02-26T01:38:58;99117.91;;;12.19;95.88
7376;BME280;3728;42.266;24.944;2024-02-26T01:41:25;99118.81;;;12.23;95.28
7376;BME280;3728;42.266;24.944;2024-02-26T01:43:51;99112.06;;;12.14;95.31
7376;BME280;3728;42.266;24.944;2024-02-26T01:46:18;99103.44;;;12.13;95.86
7376;BME280;3728;42.266;24.944;2024-02-26T01:48:47;99120.31;;;12.04;95.62
7376;BME280;3728;42.266;24.944;2024-02-26T01:51:17;99142.09;;;12.25;95.61
7376;BME280;3728;42.266;24.944;2024-02-26T01:53:44;99169.75;;;12.22;94.00
7376;BME280;3728;42.266;24.944;2024-02-26T01:56:12;99166.31;;;12.10;94.60
7376;BME280;3728;42.266;24.944;2024-02-26T01:58:40;99165.66;;;11.84;96.39
7376;BME280;3728;42.266;24.944;2024-02-26T02:01:08;99149.59;;;12.14;95.67
7376;BME280;3728;42.266;24.944;2024-02-26T02:03:36;99163.81;;;12.13;95.50
7376;BME280;3728;42.266;24.944;2024-02-26T02:06:04;99179.59;;;12.55;92.41
7376;BME280;3728;42.266;24.944;2024-02-26T02:08:32;99185.47;;;12.72;90.52
7376;BME280;3728;42.266;24.944;2024-02-26T02:10:59;99180.41;;;12.26;92.71
7376;BME280;3728;42.266;24.944;2024-02-26T02:13:26;99173.47;;;12.01;94.84
7376;BME280;3728;42.266;24.944;2024-02-26T02:15:53;99157.38;;;11.64;97.93
7376;BME280;3728;42.266;24.944;2024-02-26T02:18:20;99148.47;;;11.57;100.00
7376;BME280;3728;42.266;24.944;2024-02-26T02:20:47;99145.25;;;11.51;100.00
7376;BME280;3728;42.266;24.944;2024-02-26T02:23:14;99136.28;;;11.52;100.00
7376;BME280;3728;42.266;24.944;2024-02-26T02:25:41;99146.66;;;11.49;100.00
7376;BME280;3728;42.266;24.944;2024-02-26T02:28:09;99163.41;;;11.56;100.00
7376;BME280;3728;42.266;24.944;2024-02-26T02:30:36;99173.13;;;12.31;95.95
7376;BME280;3728;42.266;24.944;2024-02-26T02:33:04;99167.28;;;11.97;96.15
7376;BME280;3728;42.266;24.944;2024-02-26T02:35:31;99170.63;;;11.77;97.58
7376;BME280;3728;42.266;24.944;2024-02-26T02:37:58;99173.50;;;11.92;97.43
7376;BME280;3728;42.266;24.944;2024-02-26T02:40:25;99163.94;;;11.88;96.16
7376;BME280;3728;42.266;24.944;2024-02-26T02:42:53;99162.88;;;11.80;96.14
7376;BME280;3728;42.266;24.944;2024-02-26T02:45:19;99156.69;;;11.38;99.26
7376;BME280;3728;42.266;24.944;2024-02-26T02:47:46;99158.13;;;11.27;100.00
7376;BME280;3728;42.266;24.944;2024-02-26T02:50:14;99174.03;;;11.22;100.00
7376;BME280;3728;42.266;24.944;2024-02-26T02:52:40;99166.59;;;11.33;100.00
7376;BME280;3728;42.266;24.944;2024-02-26T02:55:07;99165.09;;;11.23;100.00
7376;BME280;3728;42.266;24.944;2024-02-26T02:57:35;99168.50;;;11.07;100.00
7376;BME280;3728;42.266;24.944;2024-02-26T03:00:08;99155.06;;;11.17;100.00
7376;BME280;3728;42.266;24.944;2024-02-26T03:02:36;99159.25;;;11.09;100.00
7376;BME280;3728;42.266;24.944;2024-02-26T03:05:03;99166.47;;;11.12;100.00
7376;BME280;3728;42.266;24.944;2024-02-26T03:07:31;99170.31;;;11.15;100.00
7376;BME280;3728;42.266;24.944;2024-02-26T03:09:58;99165.69;;;11.20;100.00
7376;BME280;3728;42.266;24.944;2024-02-26T03:12:25;99164.50;;;11.09;100.00
7376;BME280;3728;42.266;24.944;2024-02-26T03:14:54;99172.66;;;11.08;100.00
7376;BME280;3728;42.266;24.944;2024-02-26T03:17:21;99169.56;;;11.06;100.00
7376;BME280;3728;42.266;24.944;2024-02-26T03:19:51;99166.03;;;11.10;100.00
7376;BME280;3728;42.266;24.944;2024-02-26T03:22:20;99174.19;;;11.09;100.00
7376;BME280;3728;42.266;24.944;2024-02-26T03:24:48;99182.25;;;11.58;100.00
7376;BME280;3728;42.266;24.944;2024-02-26T03:27:15;99183.03;;;11.50;100.00
7376;BME280;3728;42.266;24.944;2024-02-26T03:29:42;99170.63;;;11.30;100.00
7376;BME280;3728;42.266;24.944;2024-02-26T03:32:09;99174.63;;;11.19;100.00
7376;BME280;3728;42.266;24.944;2024-02-26T03:34:36;99169.56;;;11.06;100.00
7376;BME280;3728;42.266;24.944;2024-02-26T03:37:06;99168.81;;;10.96;100.00
7376;BME280;3728;42.266;24.944;2024-02-26T03:39:34;99176.50;;;11.10;100.00
7376;BME280;3728;42.266;24.944;2024-02-26T03:42:01;99164.44;;;11.26;100.00
7376;BME280;3728;42.266;24.944;2024-02-26T03:44:28;99157.53;;;11.22;100.00
7376;BME280;3728;42.266;24.944;2024-02-26T03:46:55;99159.53;;;11.25;100.00
7376;BME280;3728;42.266;24.944;2024-02-26T03:49:22;99168.28;;;11.37;100.00
7376;BME280;3728;42.266;24.944;2024-02-26T03:51:50;99168.94;;;11.26;100.00
7376;BME280;3728;42.266;24.944;2024-02-26T03:54:17;99171.25;;;11.19;100.00
7376;BME280;3728;42.266;24.944;2024-02-26T03:56:44;99173.84;;;11.27;100.00
7376;BME280;3728;42.266;24.944;2024-02-26T03:59:11;99178.47;;;11.30;100.00
7376;BME280;3728;42.266;24.944;2024-02-26T04:01:38;99172.75;;;11.28;100.00
7376;BME280;3728;42.266;24.944;2024-02-26T04:04:06;99176.59;;;11.31;100.00
7376;BME280;3728;42.266;24.944;2024-02-26T04:06:33;99178.31;;;11.27;100.00
7376;BME280;3728;42.266;24.944;2024-02-26T04:09:00;99184.66;;;11.17;100.00
7376;BME280;3728;42.266;24.944;2024-02-26T04:11:30;99187.00;;;11.10;100.00
7376;BME280;3728;42.266;24.944;2024-02-26T04:13:57;99183.91;;;11.08;100.00
7376;BME280;3728;42.266;24.944;2024-02-26T04:16:24;99183.44;;;11.15;100.00
7376;BME280;3728;42.266;24.944;2024-02-26T04:18:52;99173.88;;;11.10;100.00
7376;BME280;3728;42.266;24.944;2024-02-26T04:21:20;99177.56;;;11.18;100.00
7376;BME280;3728;42.266;24.944;2024-02-26T04:23:47;99176.34;;;11.15;100.00
7376;BME280;3728;42.266;24.944;2024-02-26T04:26:15;99175.44;;;11.11;100.00
7376;BME280;3728;42.266;24.944;2024-02-26T04:28:42;99170.81;;;11.08;100.00
7376;BME280;3728;42.266;24.944;2024-02-26T04:31:09;99174.69;;;11.02;100.00
7376;BME280;3728;42.266;24.944;2024-02-26T04:33:36;99174.19;;;11.17;100.00
7376;BME280;3728;42.266;24.944;2024-02-26T04:36:04;99175.56;;;11.15;100.00
7376;BME280;3728;42.266;24.944;2024-02-26T04:38:31;99172.66;;;11.16;100.00
7376;BME280;3728;42.266;24.944;2024-02-26T04:40:58;99184.81;;;11.12;99.94
7376;BME280;3728;42.266;24.944;2024-02-26T04:43:25;99179.94;;;11.02;100.00
7376;BME280;3728;42.266;24.944;2024-02-26T04:45:52;99172.22;;;10.97;100.00
7376;BME280;3728;42.266;24.944;2024-02-26T04:48:19;99184.22;;;11.15;100.00
7376;BME280;3728;42.266;24.944;2024-02-26T04:50:46;99173.72;;;11.15;100.00
7376;BME280;3728;42.266;24.944;2024-02-26T04:53:13;99189.00;;;11.05;100.00
7376;BME280;3728;42.266;24.944;2024-02-26T04:55:40;99180.84;;;11.06;100.00
7376;BME280;3728;42.266;24.944;2024-02-26T04:58:07;99178.06;;;11.02;100.00
7376;BME280;3728;42.266;24.944;2024-02-26T05:00:34;99180.84;;;11.06;100.00
7376;BME280;3728;42.266;24.944;2024-02-26T05:03:01;99184.09;;;10.94;100.00
7376;BME280;3728;42.266;24.944;2024-02-26T05:05:28;99182.84;;;11.09;100.00
7376;BME280;3728;42.266;24.944;2024-02-26T05:07:55;99186.06;;;11.06;100.00
7376;BME280;3728;42.266;24.944;2024-02-26T05:10:22;99182.84;;;11.09;100.00
7376;BME280;3728;42.266;24.944;2024-02-26T05:12:49;99185.59;;;11.13;99.57
7376;BME280;3728;42.266;24.944;2024-02-26T05:15:16;99180.84;;;11.06;100.00
7376;BME280;3728;42.266;24.944;2024-02-26T05:17:45;99195.94;;;11.00;100.00
7376;BME280;3728;42.266;24.944;2024-02-26T05:20:12;99201.81;;;11.06;100.00
7376;BME280;3728;42.266;24.944;2024-02-26T05:22:39;99204.13;;;10.99;100.00
7376;BME280;3728;42.266;24.944;2024-02-26T05:25:06;99203.78;;;11.00;100.00
7376;BME280;3728;42.266;24.944;2024-02-26T05:27:33;99205.03;;;11.03;100.00
7376;BME280;3728;42.266;24.944;2024-02-26T05:30:00;99206.25;;;11.06;100.00
7376;BME280;3728;42.266;24.944;2024-02-26T05:32:27;99203.16;;;11.12;100.00
7376;BME280;3728;42.266;24.944;2024-02-26T05:34:54;99205.19;;;11.07;100.00
7376;BME280;3728;42.266;24.944;2024-02-26T05:37:21;99213.19;;;10.93;100.00
7376;BME280;3728;42.266;24.944;2024-02-26T05:39:49;99220.59;;;11.08;100.00
7376;BME280;3728;42.266;24.944;2024-02-26T05:42:16;99224.63;;;10.97;100.00
7376;BME280;3728;42.266;24.944;2024-02-26T05:44:42;99228.78;;;11.07;100.00
7376;BME280;3728;42.266;24.944;2024-02-26T05:47:09;99224.94;;;11.04;100.00
7376;BME280;3728;42.266;24.944;2024-02-26T05:49:36;99230.00;;;10.92;100.00
7376;BME280;3728;42.266;24.944;2024-02-26T05:52:04;99235.41;;;10.87;100.00
7376;BME280;3728;42.266;24.944;2024-02-26T05:54:31;99241.88;;;10.98;100.00
7376;BME280;3728;42.266;24.944;2024-02-26T05:57:01;99243.56;;;11.11;100.00
7376;BME280;3728;42.266;24.944;2024-02-26T05:59:28;99242.78;;;11.19;100.00
7376;BME280;3728;42.266;24.944;2024-02-26T06:01:56;99254.19;;;11.23;100.00
7376;BME280;3728;42.266;24.944;2024-02-26T06:04:23;99253.09;;;11.24;100.00
7376;BME280;3728;42.266;24.944;2024-02-26T06:06:52;99252.19;;;11.20;100.00
7376;BME280;3728;42.266;24.944;2024-02-26T06:09:22;99259.91;;;11.25;100.00
7376;BME280;3728;42.266;24.944;2024-02-26T06:11:49;99254.78;;;11.29;100.00
7376;BME280;3728;42.266;24.944;2024-02-26T06:14:17;99256.78;;;11.49;100.00
7376;BME280;3728;42.266;24.944;2024-02-26T06:16:45;99253.69;;;11.55;100.00
7376;BME280;3728;42.266;24.944;2024-02-26T06:19:12;99254.75;;;11.54;100.00
7376;BME280;3728;42.266;24.944;2024-02-26T06:21:40;99258.59;;;11.65;100.00
7376;BME280;3728;42.266;24.944;2024-02-26T06:24:07;99258.78;;;11.60;100.00
7376;BME280;3728;42.266;24.944;2024-02-26T06:26:34;99265.09;;;11.59;100.00
7376;BME280;3728;42.266;24.944;2024-02-26T06:29:01;99257.06;;;11.64;100.00
7376;BME280;3728;42.266;24.944;2024-02-26T06:31:28;99256.16;;;11.69;100.00
7376;BME280;3728;42.266;24.944;2024-02-26T06:33:56;99261.41;;;11.69;100.00
7376;BME280;3728;42.266;24.944;2024-02-26T06:36:23;99265.84;;;11.68;100.00
7376;BME280;3728;42.266;24.944;2024-02-26T06:38:50;99267.38;;;11.87;99.83
7376;BME280;3728;42.266;24.944;2024-02-26T06:41:18;99270.28;;;11.85;99.78
7376;BME280;3728;42.266;24.944;2024-02-26T06:43:45;99268.28;;;11.91;100.00
7376;BME280;3728;42.266;24.944;2024-02-26T06:46:12;99265.94;;;11.98;99.61
7376;BME280;3728;42.266;24.944;2024-02-26T06:48:39;99265.78;;;12.03;99.07
7376;BME280;3728;42.266;24.944;2024-02-26T06:51:06;99278.28;;;11.97;99.70
7376;BME280;3728;42.266;24.944;2024-02-26T06:53:33;99276.13;;;11.99;99.38
7376;BME280;3728;42.266;24.944;2024-02-26T06:56:00;99280.59;;;11.99;99.85
7376;BME280;3728;42.266;24.944;2024-02-26T06:58:27;99278.72;;;11.99;99.11
7376;BME280;3728;42.266;24.944;2024-02-26T07:00:54;99284.31;;;11.98;99.30
7376;BME280;3728;42.266;24.944;2024-02-26T07:03:21;99285.25;;;11.85;98.77
7376;BME280;3728;42.266;24.944;2024-02-26T07:05:49;99284.91;;;12.03;97.45
7376;BME280;3728;42.266;24.944;2024-02-26T07:08:17;99281.06;;;12.01;98.38
7376;BME280;3728;42.266;24.944;2024-02-26T07:10:44;99294.19;;;11.92;99.08
7376;BME280;3728;42.266;24.944;2024-02-26T07:13:11;99289.28;;;11.91;99.17
7376;BME280;3728;42.266;24.944;2024-02-26T07:15:38;99287.31;;;11.79;100.00
7376;BME280;3728;42.266;24.944;2024-02-26T07:18:06;99283.88;;;11.87;100.00
7376;BME280;3728;42.266;24.944;2024-02-26T07:20:33;99274.63;;;11.81;100.00
7376;BME280;3728;42.266;24.944;2024-02-26T07:23:01;99275.94;;;12.04;100.00
7376;BME280;3728;42.266;24.944;2024-02-26T07:25:28;99270.84;;;12.08;100.00
7376;BME280;3728;42.266;24.944;2024-02-26T07:27:55;99273.09;;;12.18;100.00
7376;BME280;3728;42.266;24.944;2024-02-26T07:30:22;99281.81;;;12.39;99.46
7376;BME280;3728;42.266;24.944;2024-02-26T07:32:49;99280.03;;;12.52;97.84
7376;BME280;3728;42.266;24.944;2024-02-26T07:35:17;99270.75;;;12.54;97.46
7376;BME280;3728;42.266;24.944;2024-02-26T07:37:44;99274.69;;;12.40;98.22
7376;BME280;3728;42.266;24.944;2024-02-26T07:40:14;99279.72;;;12.53;96.92
7376;BME280;3728;42.266;24.944;2024-02-26T07:42:41;99277.59;;;12.47;97.37
7376;BME280;3728;42.266;24.944;2024-02-26T07:45:09;99273.03;;;12.64;97.86
7376;BME280;3728;42.266;24.944;2024-02-26T07:47:37;99278.56;;;12.92;96.83
7376;BME280;3728;42.266;24.944;2024-02-26T07:50:08;99282.66;;;13.01;92.93
7376;BME280;3728;42.266;24.944;2024-02-26T07:52:35;99283.75;;;13.42;90.75
7376;BME280;3728;42.266;24.944;2024-02-26T07:55:04;99290.97;;;13.45;90.47
7376;BME280;3728;42.266;24.944;2024-02-26T07:57:33;99283.56;;;13.47;89.13
7376;BME280;3728;42.266;24.944;2024-02-26T08:00:02;99278.53;;;13.66;90.50
7376;BME280;3728;42.266;24.944;2024-02-26T08:02:30;99275.69;;;13.71;89.48
7376;BME280;3728;42.266;24.944;2024-02-26T08:04:57;99288.31;;;13.65;89.33
7376;BME280;3728;42.266;24.944;2024-02-26T08:07:24;99282.13;;;13.94;87.07
7376;BME280;3728;42.266;24.944;2024-02-26T08:09:52;99272.47;;;13.98;87.59
7376;BME280;3728;42.266;24.944;2024-02-26T08:12:19;99280.41;;;14.22;85.28
7376;BME280;3728;42.266;24.944;2024-02-26T08:14:46;99276.00;;;14.14;86.72
7376;BME280;3728;42.266;24.944;2024-02-26T08:17:13;99270.81;;;14.18;86.56
7376;BME280;3728;42.266;24.944;2024-02-26T08:19:41;99281.19;;;14.59;85.46
7376;BME280;3728;42.266;24.944;2024-02-26T08:22:09;99281.69;;;14.77;83.07
7376;BME280;3728;42.266;24.944;2024-02-26T08:24:42;99284.50;;;14.96;80.57
7376;BME280;3728;42.266;24.944;2024-02-26T08:27:09;99275.84;;;14.95;80.71
7376;BME280;3728;42.266;24.944;2024-02-26T08:29:36;99283.66;;;14.80;81.86
7376;BME280;3728;42.266;24.944;2024-02-26T08:32:04;99276.19;;;14.70;82.27
7376;BME280;3728;42.266;24.944;2024-02-26T08:34:32;99283.97;;;14.90;80.12
7376;BME280;3728;42.266;24.944;2024-02-26T08:37:00;99269.97;;;14.74;80.85
7376;BME280;3728;42.266;24.944;2024-02-26T08:39:27;99270.94;;;14.70;82.15
7376;BME280;3728;42.266;24.944;2024-02-26T08:41:54;99275.50;;;14.97;80.24
7376;BME280;3728;42.266;24.944;2024-02-26T08:44:21;99267.00;;;15.03;79.81
7376;BME280;3728;42.266;24.944;2024-02-26T08:46:48;99274.31;;;15.22;79.82
7376;BME280;3728;42.266;24.944;2024-02-26T08:49:15;99268.22;;;15.34;79.01
7376;BME280;3728;42.266;24.944;2024-02-26T08:51:43;99262.31;;;15.25;78.76
7376;BME280;3728;42.266;24.944;2024-02-26T08:54:11;99265.56;;;15.46;77.71
7376;BME280;3728;42.266;24.944;2024-02-26T08:56:38;99260.41;;;15.37;77.97
7376;BME280;3728;42.266;24.944;2024-02-26T08:59:05;99259.81;;;15.44;78.04
7376;BME280;3728;42.266;24.944;2024-02-26T09:01:32;99267.56;;;15.37;78.77
7376;BME280;3728;42.266;24.944;2024-02-26T09:03:59;99259.81;;;15.44;79.26
7376;BME280;3728;42.266;24.944;2024-02-26T09:06:28;99262.38;;;15.84;76.98
7376;BME280;3728;42.266;24.944;2024-02-26T09:08:56;99260.66;;;16.07;74.73
7376;BME280;3728;42.266;24.944;2024-02-26T09:11:27;99261.88;;;15.94;76.24
7376;BME280;3728;42.266;24.944;2024-02-26T09:13:55;99261.63;;;15.99;76.31
7376;BME280;3728;42.266;24.944;2024-02-26T09:16:22;99257.75;;;16.12;77.27
7376;BME280;3728;42.266;24.944;2024-02-26T09:18:49;99257.72;;;16.43;73.33
7376;BME280;3728;42.266;24.944;2024-02-26T09:21:16;99257.06;;;16.30;73.66
7376;BME280;3728;42.266;24.944;2024-02-26T09:23:51;99266.00;;;16.41;74.20
7376;BME280;3728;42.266;24.944;2024-02-26T09:26:18;99252.44;;;16.43;74.03
7376;BME280;3728;42.266;24.944;2024-02-26T09:28:45;99249.28;;;16.37;73.24
7376;BME280;3728;42.266;24.944;2024-02-26T09:31:13;99252.34;;;16.39;72.69
7376;BME280;3728;42.266;24.944;2024-02-26T09:33:45;99243.22;;;16.37;73.49
7376;BME280;3728;42.266;24.944;2024-02-26T09:36:13;99246.41;;;16.77;70.60
7376;BME280;3728;42.266;24.944;2024-02-26T09:38:40;99250.59;;;17.17;67.75
7376;BME280;3728;42.266;24.944;2024-02-26T09:41:22;99247.31;;;16.85;69.55
7376;BME280;3728;42.266;24.944;2024-02-26T09:43:50;99256.00;;;16.66;71.29
7376;BME280;3728;42.266;24.944;2024-02-26T09:46:21;99246.59;;;16.69;71.82
7376;BME280;3728;42.266;24.944;2024-02-26T09:48:48;99240.34;;;16.77;71.70
7376;BME280;3728;42.266;24.944;2024-02-26T09:51:16;99246.53;;;16.84;71.13
7376;BME280;3728;42.266;24.944;2024-02-26T09:53:46;99241.53;;;16.98;70.20
7376;BME280;3728;42.266;24.944;2024-02-26T09:56:14;99238.97;;;17.21;68.44
7376;BME280;3728;42.266;24.944;2024-02-26T09:58:42;99242.72;;;17.01;71.27
7376;BME280;3728;42.266;24.944;2024-02-26T10:01:16;99236.72;;;17.04;70.01
7376;BME280;3728;42.266;24.944;2024-02-26T10:03:48;99237.03;;;17.60;65.02
7376;BME280;3728;42.266;24.944;2024-02-26T10:06:19;99238.53;;;17.80;63.26
7376;BME280;3728;42.266;24.944;2024-02-26T10:08:47;99235.47;;;17.78;62.96
7376;BME280;3728;42.266;24.944;2024-02-26T10:11:15;99235.63;;;17.89;62.37
7376;BME280;3728;42.266;24.944;2024-02-26T10:13:42;99233.56;;;17.56;63.53
7376;BME280;3728;42.266;24.944;2024-02-26T10:16:09;99227.34;;;17.48;64.19
7376;BME280;3728;42.266;24.944;2024-02-26T10:21:22;99212.91;;;17.46;64.90
7376;BME280;3728;42.266;24.944;2024-02-26T10:23:49;99220.06;;;17.64;63.62
7376;BME280;3728;42.266;24.944;2024-02-26T10:26:20;99206.91;;;17.68;63.17
7376;BME280;3728;42.266;24.944;2024-02-26T10:28:47;99211.19;;;18.25;58.99
7376;BME280;3728;42.266;24.944;2024-02-26T10:31:20;99210.41;;;18.24;58.43
7376;BME280;3728;42.266;24.944;2024-02-26T10:33:50;99201.03;;;18.04;59.72
7376;BME280;3728;42.266;24.944;2024-02-26T10:36:23;99190.09;;;17.83;60.48
7376;BME280;3728;42.266;24.944;2024-02-26T10:39:07;99189.31;;;18.31;57.46
7376;BME280;3728;42.266;24.944;2024-02-26T10:41:34;99190.50;;;18.08;59.11
7376;BME280;3728;42.266;24.944;2024-02-26T10:44:05;99184.78;;;18.06;60.19
7376;BME280;3728;42.266;24.944;2024-02-26T10:46:32;99182.38;;;17.97;61.74
7376;BME280;3728;42.266;24.944;2024-02-26T10:48:59;99181.84;;;18.40;59.78
7376;BME280;3728;42.266;24.944;2024-02-26T10:51:29;99179.50;;;18.62;56.80
7376;BME280;3728;42.266;24.944;2024-02-26T10:53:58;99175.28;;;18.57;57.50
7376;BME280;3728;42.266;24.944;2024-02-26T10:56:33;99173.50;;;18.38;58.19
7376;BME280;3728;42.266;24.944;2024-02-26T10:59:01;99168.00;;;18.24;57.34
7376;BME280;3728;42.266;24.944;2024-02-26T11:01:28;99164.69;;;18.05;59.19
7376;BME280;3728;42.266;24.944;2024-02-26T11:03:59;99163.66;;;18.39;57.86
7376;BME280;3728;42.266;24.944;2024-02-26T11:06:28;99156.09;;;18.71;55.49
7376;BME280;3728;42.266;24.944;2024-02-26T11:08:56;99152.47;;;18.53;55.41
7376;BME280;3728;42.266;24.944;2024-02-26T11:11:25;99158.81;;;18.74;55.59
7376;BME280;3728;42.266;24.944;2024-02-26T11:13:56;99153.81;;;18.69;55.91
7376;BME280;3728;42.266;24.944;2024-02-26T11:16:25;99159.88;;;19.03;55.05
7376;BME280;3728;42.266;24.944;2024-02-26T11:18:53;99157.06;;;18.89;54.38
7376;BME280;3728;42.266;24.944;2024-02-26T11:21:22;99148.28;;;18.85;54.28
7376;BME280;3728;42.266;24.944;2024-02-26T11:23:55;99141.75;;;19.12;54.56
7376;BME280;3728;42.266;24.944;2024-02-26T11:26:23;99137.69;;;19.25;52.56
7376;BME280;3728;42.266;24.944;2024-02-26T11:28:52;99142.69;;;19.30;52.65
7376;BME280;3728;42.266;24.944;2024-02-26T11:31:25;99131.22;;;19.19;53.32
7376;BME280;3728;42.266;24.944;2024-02-26T11:33:55;99137.63;;;19.62;51.37
7376;BME280;3728;42.266;24.944;2024-02-26T11:36:24;99138.25;;;19.41;51.98
7376;BME280;3728;42.266;24.944;2024-02-26T11:38:51;99131.34;;;19.33;52.52
7376;BME280;3728;42.266;24.944;2024-02-26T11:41:19;99137.47;;;19.41;52.66
7376;BME280;3728;42.266;24.944;2024-02-26T11:43:57;99125.06;;;19.52;52.68
7376;BME280;3728;42.266;24.944;2024-02-26T11:46:31;99121.97;;;19.97;51.71
7376;BME280;3728;42.266;24.944;2024-02-26T11:49:03;99124.41;;;20.27;49.53
7376;BME280;3728;42.266;24.944;2024-02-26T11:51:34;99117.59;;;20.29;49.31
7376;BME280;3728;42.266;24.944;2024-02-26T11:54:02;99115.50;;;19.98;50.91
7376;BME280;3728;42.266;24.944;2024-02-26T11:56:29;99112.44;;;19.96;51.17
7376;BME280;3728;42.266;24.944;2024-02-26T11:59:09;99114.88;;;20.22;50.03
7376;BME280;3728;42.266;24.944;2024-02-26T12:01:40;99115.31;;;20.31;49.98
7376;BME280;3728;42.266;24.944;2024-02-26T12:06:51;99115.00;;;20.54;48.80
7376;BME280;3728;42.266;24.944;2024-02-26T12:12:01;99101.75;;;20.75;49.04
7376;BME280;3728;42.266;24.944;2024-02-26T12:14:33;99104.44;;;20.89;48.79
7376;BME280;3728;42.266;24.944;2024-02-26T12:17:01;99095.31;;;20.94;47.77
7376;BME280;3728;42.266;24.944;2024-02-26T12:19:35;99094.56;;;20.86;47.65
7376;BME280;3728;42.266;24.944;2024-02-26T12:22:06;99088.50;;;20.93;48.49
7376;BME280;3728;42.266;24.944;2024-02-26T12:24:37;99089.63;;;20.88;48.90
7376;BME280;3728;42.266;24.944;2024-02-26T12:27:04;99088.47;;;20.96;47.66
7376;BME280;3728;42.266;24.944;2024-02-26T12:29:32;99086.22;;;20.98;48.66
7376;BME280;3728;42.266;24.944;2024-02-26T12:31:59;99089.31;;;21.07;49.12
7376;BME280;3728;42.266;24.944;2024-02-26T12:34:26;99090.03;;;21.22;47.86
7376;BME280;3728;42.266;24.944;2024-02-26T12:36:54;99083.16;;;21.03;47.96
7376;BME280;3728;42.266;24.944;2024-02-26T12:39:21;99082.78;;;20.91;48.59
7376;BME280;3728;42.266;24.944;2024-02-26T12:41:49;99074.81;;;20.98;48.01
7376;BME280;3728;42.266;24.944;2024-02-26T12:44:16;99078.59;;;20.93;48.16
7376;BME280;3728;42.266;24.944;2024-02-26T12:46:44;99077.44;;;20.94;48.05
7376;BME280;3728;42.266;24.944;2024-02-26T12:49:15;99073.66;;;20.95;48.37
7376;BME280;3728;42.266;24.944;2024-02-26T12:51:45;99072.88;;;20.81;48.83
7376;BME280;3728;42.266;24.944;2024-02-26T12:54:13;99073.66;;;20.81;49.01
7376;BME280;3728;42.266;24.944;2024-02-26T12:56:40;99060.72;;;20.83;48.19
7376;BME280;3728;42.266;24.944;2024-02-26T12:59:08;99070.97;;;20.78;47.88
7376;BME280;3728;42.266;24.944;2024-02-26T13:01:35;99076.66;;;20.80;47.72
7376;BME280;3728;42.266;24.944;2024-02-26T13:04:03;99061.81;;;20.58;48.46
7376;BME280;3728;42.266;24.944;2024-02-26T13:06:34;99066.72;;;20.52;48.46
7376;BME280;3728;42.266;24.944;2024-02-26T13:09:02;99075.47;;;20.45;48.68
7376;BME280;3728;42.266;24.944;2024-02-26T13:11:30;99073.59;;;20.60;47.28
7376;BME280;3728;42.266;24.944;2024-02-26T13:13:58;99076.66;;;20.69;46.66
7376;BME280;3728;42.266;24.944;2024-02-26T13:16:25;99076.66;;;20.62;46.34
7376;BME280;3728;42.266;24.944;2024-02-26T13:18:53;99071.69;;;20.54;46.46